createdAt,value
2022-12-23T00:00:55.054Z,5.7
2022-12-23T00:03:55.929Z,5.7
2022-12-23T00:06:55.391Z,5.7
2022-12-23T00:09:55.686Z,5.7
2022-12-23T00:12:56.477Z,5.6
2022-12-23T00:15:56.169Z,5.6
2022-12-23T00:18:56.319Z,5.6
2022-12-23T00:21:52.121Z,5.6
2022-12-23T00:24:56.855Z,5.6
2022-12-23T00:27:52.279Z,5.6
2022-12-23T00:30:52.916Z,5.6
2022-12-23T00:33:52.496Z,5.6
2022-12-23T00:36:52.724Z,5.6
2022-12-23T00:39:56.969Z,5.6
2022-12-23T00:42:53.704Z,5.5
2022-12-23T00:45:53.589Z,5.5
2022-12-23T00:48:53.642Z,5.5
2022-12-23T00:51:54.507Z,5.5
2022-12-23T00:54:59.044Z,5.5
2022-12-23T00:57:54.268Z,5.5
2022-12-23T01:00:55.302Z,5.5
2022-12-23T01:03:54.723Z,5.5
2022-12-23T01:06:54.930Z,5.5
2022-12-23T01:09:55.810Z,5.5
2022-12-23T01:12:55.413Z,5.5
2022-12-23T01:15:55.719Z,5.5
2022-12-23T01:18:55.931Z,5.5
2022-12-23T01:21:51.708Z,5.5
2022-12-23T01:24:56.294Z,5.5
2022-12-23T01:27:51.587Z,5.5
2022-12-23T01:30:52.316Z,5.5
2022-12-23T01:33:51.968Z,5.5
2022-12-23T01:36:52.187Z,5.5
2022-12-23T01:39:53.000Z,5.5
2022-12-23T01:42:52.682Z,5.5
2022-12-23T01:45:53.096Z,5.5
2022-12-23T01:48:53.739Z,5.5
2022-12-23T01:51:53.309Z,5.5
2022-12-23T01:54:53.557Z,5.5
2022-12-23T01:57:53.844Z,5.5
2022-12-23T02:00:54.778Z,5.5
2022-12-23T02:03:54.310Z,5.5
2022-12-23T02:06:54.522Z,5.5
2022-12-23T02:09:55.259Z,5.5
2022-12-23T02:12:54.920Z,5.5
2022-12-23T02:16:05.149Z,5.5
2022-12-23T02:18:55.899Z,5.5
2022-12-23T02:21:55.784Z,5.5
2022-12-23T02:24:55.823Z,5.5
2022-12-23T02:27:56.572Z,5.6
2022-12-23T02:30:56.454Z,5.6
2022-12-23T02:33:56.461Z,5.6
2022-12-23T02:36:51.716Z,5.6
2022-12-23T02:39:52.586Z,5.6
2022-12-23T02:42:52.129Z,5.6
2022-12-23T02:45:52.557Z,5.6
2022-12-23T02:48:53.145Z,5.6
2022-12-23T02:51:52.817Z,5.6
2022-12-23T02:54:53.088Z,5.6
2022-12-23T02:57:53.866Z,5.6
2022-12-23T03:00:53.529Z,5.6
2022-12-23T03:03:53.977Z,5.6
2022-12-23T03:06:54.480Z,5.6
2022-12-23T03:09:54.171Z,5.6
2022-12-23T03:12:54.415Z,5.6
2022-12-23T03:15:54.791Z,5.6
2022-12-23T03:18:55.406Z,5.7
2022-12-23T03:21:55.126Z,5.7
2022-12-23T03:24:55.323Z,5.7
2022-12-23T03:27:56.103Z,5.7
2022-12-23T03:30:55.864Z,5.7
2022-12-23T03:33:56.043Z,5.7
2022-12-23T03:36:51.747Z,5.7
2022-12-23T03:39:51.452Z,5.7
2022-12-23T03:42:51.652Z,5.7
2022-12-23T03:45:52.467Z,5.7
2022-12-23T03:48:52.136Z,5.7
2022-12-23T03:51:52.380Z,5.7
2022-12-23T03:54:52.589Z,5.7
2022-12-23T03:57:53.391Z,5.7
2022-12-23T04:00:53.064Z,5.7
2022-12-23T04:03:53.468Z,5.7
2022-12-23T04:06:54.138Z,5.7
2022-12-23T04:09:53.713Z,5.7
2022-12-23T04:12:53.976Z,5.7
2022-12-23T04:15:54.886Z,5.7
2022-12-23T04:18:54.396Z,5.7
2022-12-23T04:21:54.632Z,5.7
2022-12-23T04:24:55.396Z,5.6
2022-12-23T04:27:55.098Z,5.6
2022-12-23T04:30:55.457Z,5.6
2022-12-23T04:33:55.544Z,5.6
2022-12-23T04:36:56.301Z,5.6
2022-12-23T04:39:56.053Z,5.6
2022-12-23T04:42:56.259Z,5.6
2022-12-23T04:45:52.089Z,5.6
2022-12-23T04:48:51.645Z,5.6
2022-12-23T04:51:51.941Z,5.6
2022-12-23T04:54:52.739Z,5.6
2022-12-23T04:57:52.374Z,5.6
2022-12-23T05:00:52.691Z,5.6
2022-12-23T05:03:53.336Z,5.6
2022-12-23T05:06:53.048Z,5.6
2022-12-23T05:09:53.308Z,5.6
2022-12-23T05:12:53.518Z,5.6
2022-12-23T05:15:54.457Z,5.6
2022-12-23T05:18:53.968Z,5.6
2022-12-23T05:21:54.158Z,5.6
2022-12-23T05:24:54.999Z,5.7
2022-12-23T05:27:54.675Z,5.7
2022-12-23T05:30:54.898Z,5.7
2022-12-23T05:34:02.326Z,5.7
2022-12-23T05:36:55.263Z,5.7
2022-12-23T05:39:55.570Z,5.7
2022-12-23T05:42:56.433Z,5.7
2022-12-23T05:45:56.200Z,5.7
2022-12-23T05:48:51.189Z,5.7
2022-12-23T05:51:51.442Z,5.7
2022-12-23T05:54:57.282Z,5.7
2022-12-23T05:57:51.990Z,5.7
2022-12-23T06:00:52.125Z,5.7
2022-12-23T06:03:53.357Z,5.7
2022-12-23T06:06:52.575Z,5.7
2022-12-23T06:09:52.788Z,5.7
2022-12-23T06:12:53.588Z,5.7
2022-12-23T06:15:53.258Z,5.7
2022-12-23T06:18:53.508Z,5.7
2022-12-23T06:21:54.298Z,5.7
2022-12-23T06:24:53.962Z,5.7
2022-12-23T06:27:54.142Z,5.7
2022-12-23T06:30:54.393Z,5.7
2022-12-23T06:33:55.226Z,5.7
2022-12-23T06:36:54.922Z,5.7
2022-12-23T06:39:55.071Z,5.7
2022-12-23T06:42:55.859Z,5.7
2022-12-23T06:45:55.832Z,5.7
2022-12-23T06:48:55.810Z,5.7
2022-12-23T06:51:56.643Z,5.7
2022-12-23T06:54:56.225Z,5.7
2022-12-23T06:57:51.420Z,5.7
2022-12-23T07:00:52.457Z,5.7
2022-12-23T07:03:51.894Z,5.7
2022-12-23T07:06:52.094Z,5.7
2022-12-23T07:09:52.357Z,5.7
2022-12-23T07:12:53.127Z,5.7
2022-12-23T07:15:52.821Z,5.7
2022-12-23T07:18:53.071Z,5.7
2022-12-23T07:21:53.955Z,5.7
2022-12-23T07:24:53.471Z,5.7
2022-12-23T07:27:53.799Z,5.7
2022-12-23T07:30:54.648Z,5.7
2022-12-23T07:33:54.367Z,5.7
2022-12-23T07:36:54.505Z,5.7
2022-12-23T07:39:55.362Z,5.7
2022-12-23T07:42:55.017Z,5.7
2022-12-23T07:46:01.542Z,5.7
2022-12-23T07:48:55.674Z,5.7
2022-12-23T07:51:56.203Z,5.7
2022-12-23T07:54:55.918Z,5.7
2022-12-23T07:57:56.135Z,5.7
2022-12-23T08:00:57.161Z,5.7
2022-12-23T08:03:56.915Z,5.7
2022-12-23T08:06:51.838Z,5.7
2022-12-23T08:10:02.665Z,5.7
2022-12-23T08:12:52.285Z,5.7
2022-12-23T08:15:52.499Z,5.7
2022-12-23T08:18:53.320Z,5.7
2022-12-23T08:21:52.981Z,5.7
2022-12-23T08:24:53.216Z,5.7
2022-12-23T08:27:53.470Z,5.7
2022-12-23T08:30:54.378Z,5.7
2022-12-23T08:33:53.832Z,5.7
2022-12-23T08:36:54.030Z,5.7
2022-12-23T08:39:54.856Z,5.7
2022-12-23T08:42:54.607Z,5.7
2022-12-23T08:45:54.995Z,5.7
2022-12-23T08:48:55.659Z,5.7
2022-12-23T08:51:55.160Z,5.7
2022-12-23T08:54:55.402Z,5.7
2022-12-23T08:57:56.190Z,5.7
2022-12-23T09:00:55.869Z,5.7
2022-12-23T09:03:56.379Z,5.7
2022-12-23T09:06:56.373Z,5.7
2022-12-23T09:09:57.099Z,5.7
2022-12-23T09:12:58.596Z,5.7
2022-12-23T09:15:52.208Z,5.7
2022-12-23T09:18:52.856Z,5.8
2022-12-23T09:21:52.471Z,5.8
2022-12-23T09:24:52.654Z,5.8
2022-12-23T09:27:53.527Z,5.8
2022-12-23T09:30:53.316Z,5.8
2022-12-23T09:33:53.468Z,5.8
2022-12-23T09:36:56.592Z,5.8
2022-12-23T09:39:53.834Z,5.8
2022-12-23T09:42:54.068Z,5.8
2022-12-23T09:45:54.299Z,5.8
2022-12-23T09:48:55.036Z,5.9
2022-12-23T09:51:54.741Z,5.9
2022-12-23T09:54:55.059Z,5.9
2022-12-23T09:57:55.707Z,5.9
2022-12-23T10:00:55.362Z,5.9
2022-12-23T10:03:56.009Z,5.9
2022-12-23T10:07:04.071Z,6
2022-12-23T10:09:56.154Z,6
2022-12-23T10:12:56.369Z,6
2022-12-23T10:15:52.337Z,6
2022-12-23T10:18:56.853Z,6
2022-12-23T10:22:04.896Z,6
2022-12-23T10:24:52.295Z,6
2022-12-23T10:27:53.107Z,6.1
2022-12-23T10:31:41.784Z,6.1
2022-12-23T10:33:52.978Z,6.1
2022-12-23T10:36:54.139Z,6.1
2022-12-23T10:39:53.371Z,6.1
2022-12-23T10:42:53.545Z,6.1
2022-12-23T10:45:54.375Z,6.2
2022-12-23T10:48:54.049Z,6.2
2022-12-23T10:51:54.353Z,6.2
2022-12-23T10:54:55.064Z,6.2
2022-12-23T10:57:54.839Z,6.2
2022-12-23T11:00:55.318Z,6.2
2022-12-23T11:03:56.018Z,6.2
2022-12-23T11:07:46.217Z,6.2
2022-12-23T11:09:55.682Z,6.2
2022-12-23T11:12:55.945Z,6.2
2022-12-23T11:15:56.876Z,6.3
2022-12-23T11:18:56.361Z,6.3
2022-12-23T11:21:51.555Z,6.3
2022-12-23T11:24:57.416Z,6.3
2022-12-23T11:27:52.835Z,6.3
2022-12-23T11:30:57.429Z,6.3
2022-12-23T11:33:53.068Z,6.3
2022-12-23T11:37:07.751Z,6.3
2022-12-23T11:39:52.897Z,6.3
2022-12-23T11:42:56.261Z,6.4
2022-12-23T11:45:53.609Z,6.4
2022-12-23T11:48:55.348Z,6.4
2022-12-23T11:51:53.873Z,6.4
2022-12-23T11:54:55.787Z,6.4
2022-12-23T11:57:54.255Z,6.4
2022-12-23T12:00:56.721Z,6.4
2022-12-23T12:03:55.385Z,6.4
2022-12-23T12:06:57.246Z,6.4
2022-12-23T12:09:55.245Z,6.4
2022-12-23T12:12:56.130Z,6.4
2022-12-23T12:15:55.719Z,6.4
2022-12-23T12:18:56.429Z,6.4
2022-12-23T12:21:56.709Z,6.5
2022-12-23T12:24:51.406Z,6.5
2022-12-23T12:27:51.601Z,6.5
2022-12-23T12:30:52.106Z,6.5
2022-12-23T12:33:53.511Z,6.5
2022-12-23T12:36:52.831Z,6.5
2022-12-23T12:39:57.532Z,6.5
2022-12-23T12:42:53.346Z,6.5
2022-12-23T12:45:53.275Z,6.5
2022-12-23T12:48:53.151Z,6.5
2022-12-23T12:51:53.953Z,6.5
2022-12-23T12:54:53.561Z,6.5
2022-12-23T12:57:53.918Z,6.5
2022-12-23T13:00:54.892Z,6.6
2022-12-23T13:03:54.362Z,6.6
2022-12-23T13:06:54.571Z,6.6
2022-12-23T13:09:54.734Z,6.6
2022-12-23T13:12:55.528Z,6.6
2022-12-23T13:15:55.247Z,6.6
2022-12-23T13:18:55.382Z,6.6
2022-12-23T13:21:56.269Z,6.6
2022-12-23T13:24:55.954Z,6.6
2022-12-23T13:27:51.240Z,6.6
2022-12-23T13:30:57.072Z,6.7
2022-12-23T13:33:56.535Z,6.7
2022-12-23T13:36:52.073Z,6.7
2022-12-23T13:39:53.309Z,6.7
2022-12-23T13:42:52.210Z,6.7
2022-12-23T13:45:52.585Z,6.7
2022-12-23T13:48:52.672Z,6.7
2022-12-23T13:51:53.582Z,6.7
2022-12-23T13:54:53.096Z,6.7
2022-12-23T13:57:53.332Z,6.7
2022-12-23T14:00:54.195Z,6.7
2022-12-23T14:03:53.879Z,6.7
2022-12-23T14:06:54.117Z,6.7
2022-12-23T14:09:54.821Z,6.7
2022-12-23T14:12:54.503Z,6.7
2022-12-23T14:15:55.037Z,6.7
2022-12-23T14:18:55.583Z,6.7
2022-12-23T14:21:55.280Z,6.7
2022-12-23T14:24:55.397Z,6.7
2022-12-23T14:27:55.647Z,6.7
2022-12-23T14:30:56.694Z,6.6
2022-12-23T14:33:56.064Z,6.6
2022-12-23T14:36:56.382Z,6.6
2022-12-23T14:39:57.183Z,6.6
2022-12-23T14:42:51.867Z,6.6
2022-12-23T14:45:52.048Z,6.6
2022-12-23T14:49:41.314Z,6.6
2022-12-23T14:51:52.505Z,6.6
2022-12-23T14:55:33.077Z,6.6
2022-12-23T14:57:53.446Z,6.5
2022-12-23T15:00:53.149Z,6.5
2022-12-23T15:04:02.277Z,6.5
2022-12-23T15:06:53.630Z,6.5
2022-12-23T15:10:02.651Z,6.5
2022-12-23T15:12:54.018Z,6.5
2022-12-23T15:16:02.707Z,6.5
2022-12-23T15:18:55.041Z,6.4
2022-12-23T15:22:30.310Z,6.4
2022-12-23T15:24:54.943Z,6.4
2022-12-23T15:28:03.618Z,6.4
2022-12-23T15:31:01.625Z,6.4
2022-12-23T15:34:17.052Z,6.4
2022-12-23T15:36:56.407Z,6.3
2022-12-23T15:40:13.998Z,6.3
2022-12-23T15:42:56.378Z,6.3
2022-12-23T15:45:51.623Z,6.3
2022-12-23T15:48:52.762Z,6.3
2022-12-23T15:52:20.686Z,6.3
2022-12-23T15:54:53.199Z,6.3
2022-12-23T15:57:53.172Z,6.2
2022-12-23T16:01:02.732Z,6.2
2022-12-23T16:03:53.680Z,6.2
2022-12-23T16:06:53.785Z,6.2
2022-12-23T16:09:53.381Z,6.2
2022-12-23T16:12:53.513Z,6.2
2022-12-23T16:15:54.364Z,6.2
2022-12-23T16:18:53.933Z,6.2
2022-12-23T16:21:54.194Z,6.2
2022-12-23T16:24:54.355Z,6.2
2022-12-23T16:27:55.178Z,6.1
2022-12-23T16:30:54.864Z,6.1
2022-12-23T16:33:55.066Z,6.1
2022-12-23T16:36:55.936Z,6.1
2022-12-23T16:39:55.592Z,6.1
2022-12-23T16:42:55.787Z,6.1
2022-12-23T16:45:56.793Z,6
2022-12-23T16:48:51.261Z,6
2022-12-23T16:51:56.469Z,6
2022-12-23T16:54:53.463Z,6
2022-12-23T16:57:52.713Z,6
2022-12-23T17:00:52.194Z,6
2022-12-23T17:03:52.313Z,6
2022-12-23T17:06:53.345Z,6
2022-12-23T17:09:52.798Z,6
2022-12-23T17:12:53.046Z,6
2022-12-23T17:15:53.798Z,5.9
2022-12-23T17:18:53.915Z,5.9
2022-12-23T17:21:53.716Z,5.9
2022-12-23T17:24:54.475Z,5.9
2022-12-23T17:27:54.147Z,5.9
2022-12-23T17:30:54.400Z,5.9
2022-12-23T17:33:55.293Z,5.9
2022-12-23T17:36:55.031Z,5.9
2022-12-23T17:39:55.109Z,5.9
2022-12-23T17:42:55.370Z,5.9
2022-12-23T17:45:56.340Z,5.8
2022-12-23T17:48:55.758Z,5.8
2022-12-23T17:51:56.030Z,5.8
2022-12-23T17:54:56.797Z,5.8
2022-12-23T17:57:51.441Z,5.8
2022-12-23T18:00:51.787Z,5.8
2022-12-23T18:03:52.408Z,5.8
2022-12-23T18:06:52.097Z,5.8
2022-12-23T18:09:52.516Z,5.8
2022-12-23T18:13:03.065Z,5.7
2022-12-23T18:15:52.847Z,5.7
2022-12-23T18:18:53.108Z,5.7
2022-12-23T18:21:53.281Z,5.7
2022-12-23T18:25:00.173Z,5.7
2022-12-23T18:27:53.750Z,5.7
2022-12-23T18:30:54.032Z,5.7
2022-12-23T18:33:54.719Z,5.6
2022-12-23T18:36:54.590Z,5.6
2022-12-23T18:39:54.656Z,5.6
2022-12-23T18:42:55.419Z,5.6
2022-12-23T18:45:55.279Z,5.6
2022-12-23T18:48:55.287Z,5.6
2022-12-23T18:51:56.103Z,5.5
2022-12-23T18:54:55.762Z,5.5
2022-12-23T18:57:56.012Z,5.5
2022-12-23T19:01:01.212Z,5.5
2022-12-23T19:03:56.982Z,5.5
2022-12-23T19:06:56.706Z,5.5
2022-12-23T19:09:51.828Z,5.5
2022-12-23T19:12:52.598Z,5.4
2022-12-23T19:15:52.469Z,5.4
2022-12-23T19:18:52.980Z,5.4
2022-12-23T19:21:53.484Z,5.4
2022-12-23T19:25:06.891Z,5.4
2022-12-23T19:27:53.208Z,5.4
2022-12-23T19:30:54.164Z,5.3
2022-12-23T19:33:53.746Z,5.3
2022-12-23T19:36:53.938Z,5.3
2022-12-23T19:39:54.158Z,5.3
2022-12-23T19:42:54.953Z,5.3
2022-12-23T19:45:54.727Z,5.3
2022-12-23T19:48:54.861Z,5.3
2022-12-23T19:51:55.661Z,5.2
2022-12-23T19:54:55.253Z,5.2
2022-12-23T19:57:55.503Z,5.2
2022-12-23T20:00:56.265Z,5.2
2022-12-23T20:03:55.946Z,5.2
2022-12-23T20:06:56.297Z,5.2
2022-12-23T20:09:51.954Z,5.2
2022-12-23T20:12:56.626Z,5.2
2022-12-23T20:15:53.118Z,5.2
2022-12-23T20:18:52.165Z,5.2
2022-12-23T20:21:52.915Z,5.1
2022-12-23T20:24:52.549Z,5.1
2022-12-23T20:27:52.753Z,5.1
2022-12-23T20:30:53.583Z,5.1
2022-12-23T20:33:53.215Z,5.1
2022-12-23T20:36:53.467Z,5.1
2022-12-23T20:39:54.243Z,5
2022-12-23T20:42:53.894Z,5
2022-12-23T20:45:54.139Z,5
2022-12-23T20:48:54.919Z,5
2022-12-23T20:51:54.660Z,5
2022-12-23T20:54:54.842Z,5
2022-12-23T20:57:55.672Z,4.9
2022-12-23T21:00:55.267Z,4.9
2022-12-23T21:03:55.522Z,4.9
2022-12-23T21:06:55.715Z,4.9
2022-12-23T21:09:56.591Z,4.8
2022-12-23T21:12:56.214Z,4.8
2022-12-23T21:15:51.575Z,4.8
2022-12-23T21:18:52.190Z,4.7
2022-12-23T21:21:51.840Z,4.7
2022-12-23T21:24:52.066Z,4.7
2022-12-23T21:27:52.909Z,4.6
2022-12-23T21:30:53.226Z,4.6
2022-12-23T21:33:52.751Z,4.6
2022-12-23T21:36:53.815Z,4.5
2022-12-23T21:39:53.291Z,4.5
2022-12-23T21:42:53.491Z,4.5
2022-12-23T21:45:53.740Z,4.5
2022-12-23T21:48:54.444Z,4.4
2022-12-23T21:51:54.132Z,4.4
2022-12-23T21:54:54.485Z,4.4
2022-12-23T21:57:55.217Z,4.4
2022-12-23T22:00:55.003Z,4.4
2022-12-23T22:03:55.028Z,4.4
2022-12-23T22:06:55.826Z,4.3
2022-12-23T22:09:55.528Z,4.3
2022-12-23T22:12:55.758Z,4.3
2022-12-23T22:15:56.680Z,4.2
2022-12-23T22:18:56.183Z,4.2
2022-12-23T22:21:56.385Z,4.2
2022-12-23T22:24:51.666Z,4.2
2022-12-23T22:27:52.481Z,4.2
2022-12-23T22:30:52.065Z,4.2
2022-12-23T22:33:52.363Z,4.2
2022-12-23T22:36:58.159Z,4.1
2022-12-23T22:39:52.774Z,4.1
2022-12-23T22:42:53.041Z,4.1
2022-12-23T22:45:54.096Z,4.1
2022-12-23T22:48:53.508Z,4.1
2022-12-23T22:51:53.722Z,4.1
2022-12-23T22:54:54.423Z,4
2022-12-23T22:57:54.110Z,4
2022-12-23T23:00:54.516Z,4
2022-12-23T23:03:54.634Z,4
2022-12-23T23:06:55.392Z,4
2022-12-23T23:09:55.046Z,4
2022-12-23T23:12:55.284Z,4
2022-12-23T23:15:56.102Z,4
2022-12-23T23:18:55.794Z,4
2022-12-23T23:21:55.998Z,4
2022-12-23T23:24:51.702Z,4
2022-12-23T23:27:51.390Z,4
2022-12-23T23:31:41.458Z,4
2022-12-23T23:33:52.444Z,4
2022-12-23T23:36:52.064Z,4
2022-12-23T23:39:52.321Z,4
2022-12-23T23:42:52.586Z,4
2022-12-23T23:45:53.608Z,4
2022-12-23T23:48:53.010Z,4
2022-12-23T23:51:53.219Z,4
2022-12-23T23:54:53.979Z,4
2022-12-23T23:57:53.679Z,4
